Time;durP1;ratioP1;P1;durP2;ratioP2;P2;SDS_P1;SDS_P2;PMS_P1;PMS_P2;Temp;Humidity;BMP_temperature;BMP_pressure;BME280_temperature;BME280_humidity;BME280_pressure;Samples;Min_cycle;Max_cycle;Signal;HPM_P1;HPM_P2
2022/10/19 00:01:04;;;;;;;4.65;2.35;;;;;;;22.02;62.82;99486.00;2068316;28;20140;-66
2022/10/19 00:02:05;;;;;;;3.58;2.20;;;;;;;22.01;62.92;99484.34;2070600;28;20045;-66
2022/10/19 00:03:07;;;;;;;3.72;2.47;;;;;;;22.02;62.75;99480.59;2067623;28;20053;-65
2022/10/19 00:04:08;;;;;;;3.88;2.22;;;;;;;22.03;62.61;99476.84;2070206;28;20057;-66
2022/10/19 00:05:09;;;;;;;2.30;1.80;;;;;;;22.02;62.70;99473.31;2069544;28;20053;-66
2022/10/19 00:06:13;;;;;;;4.00;2.45;;;;;;;22.03;62.69;99466.03;2066717;28;20058;-65
2022/10/19 00:07:14;;;;;;;3.97;2.47;;;;;;;22.02;62.78;99473.31;2070748;28;20137;-66
2022/10/19 00:08:15;;;;;;;4.43;2.50;;;;;;;22.03;62.74;99474.97;2070576;28;20057;-66
2022/10/19 00:09:19;;;;;;;4.03;2.70;;;;;;;22.03;62.65;99469.56;2071509;28;20167;-66
2022/10/19 00:10:19;;;;;;;3.85;2.85;;;;;;;22.01;62.63;99468.13;2071988;28;20133;-66
2022/10/19 00:11:22;;;;;;;3.00;2.13;;;;;;;22.02;62.61;99473.31;2068496;28;20709;-65
2022/10/19 00:12:23;;;;;;;3.35;2.33;;;;;;;22.03;62.61;99464.16;2056240;28;20419;-66
2022/10/19 00:13:25;;;;;;;4.07;2.30;;;;;;;22.03;62.76;99471.44;2067414;28;20140;-66
2022/10/19 00:14:26;;;;;;;3.95;3.28;;;;;;;22.02;62.76;99470.63;2067975;28;20452;-66
2022/10/19 00:15:29;;;;;;;4.22;2.53;;;;;;;22.03;62.77;99469.56;2069459;28;20059;-65
2022/10/19 00:16:32;;;;;;;2.45;1.85;;;;;;;22.02;62.68;99467.91;2068286;28;20050;-65
2022/10/19 00:17:34;;;;;;;3.88;2.80;;;;;;;22.01;62.63;99468.97;2064849;28;20041;-66
2022/10/19 00:18:35;;;;;;;2.83;2.42;;;;;;;22.02;62.77;99469.78;2064695;28;20099;-65
2022/10/19 00:19:37;;;;;;;6.03;3.72;;;;;;;22.01;62.74;99473.53;2068979;28;20092;-66
2022/10/19 00:20:37;;;;;;;4.15;2.33;;;;;;;22.03;62.76;99466.03;2065410;28;20046;-66
2022/10/19 00:21:39;;;;;;;2.47;2.20;;;;;;;22.01;62.69;99471.66;2068431;28;20056;-66
2022/10/19 00:22:41;;;;;;;2.65;2.03;;;;;;;22.01;62.68;99468.97;2069114;28;20046;-66
2022/10/19 00:23:42;;;;;;;3.10;2.50;;;;;;;22.01;62.69;99463.56;2071650;28;20132;-66
2022/10/19 00:24:44;;;;;;;2.35;2.10;;;;;;;22.01;62.80;99462.75;2071930;28;20064;-66
2022/10/19 00:25:53;;;;;;;2.60;2.17;;;;;;;21.98;62.84;99463.97;2073969;28;20049;-65
2022/10/19 00:26:55;;;;;;;3.83;2.53;;;;;;;21.99;62.80;99468.31;2068362;28;20515;-66
2022/10/19 00:27:56;;;;;;;4.88;2.75;;;;;;;21.98;62.77;99471.22;2074759;28;20053;-66
2022/10/19 00:28:58;;;;;;;2.60;2.20;;;;;;;22.00;62.83;99463.75;2069407;28;20054;-67
2022/10/19 00:29:59;;;;;;;4.28;2.28;;;;;;;22.00;62.65;99463.75;2065444;28;20053;-66
2022/10/19 00:31:04;;;;;;;2.63;2.40;;;;;;;22.00;62.79;99464.56;2069875;28;20046;-66
2022/10/19 00:32:05;;;;;;;3.25;2.53;;;;;;;22.00;62.70;99461.88;2071387;28;20503;-66
2022/10/19 00:33:06;;;;;;;3.13;2.45;;;;;;;22.00;62.90;99467.28;2073251;28;20356;-66
2022/10/19 00:34:07;;;;;;;3.55;2.25;;;;;;;22.00;62.74;99467.28;2074715;28;20050;-66
2022/10/19 00:35:09;;;;;;;2.55;2.28;;;;;;;21.99;62.73;99470.19;2069429;28;20088;-66
2022/10/19 00:36:15;;;;;;;2.22;2.03;;;;;;;21.99;62.86;99464.81;2071488;28;20061;-65
2022/10/19 00:37:17;;;;;;;4.13;2.15;;;;;;;21.98;62.92;99461.28;2066337;28;20759;-65
2022/10/19 00:38:19;;;;;;;3.55;2.53;;;;;;;21.98;62.95;99463.97;2067670;28;20053;-66
2022/10/19 00:39:21;;;;;;;4.93;2.47;;;;;;;21.98;62.91;99463.97;2068606;28;20049;-65
2022/10/19 00:40:22;;;;;;;2.60;2.03;;;;;;;21.98;62.84;99463.97;2068410;28;20399;-65
2022/10/19 00:41:26;;;;;;;5.03;2.13;;;;;;;21.99;62.78;99467.50;2068025;28;20059;-66
2022/10/19 00:42:27;;;;;;;2.70;2.42;;;;;;;21.98;62.66;99463.13;2072868;28;20068;-65
2022/10/19 00:43:31;;;;;;;3.03;2.15;;;;;;;21.99;62.83;99459.41;2063678;28;20257;-66
2022/10/19 00:44:58;;;;;;;3.20;2.38;;;;;;;21.95;62.87;99464.34;2067823;28;20083;-66
2022/10/19 00:45:59;;;;;;;3.53;2.30;;;;;;;21.94;63.05;99457.31;2069564;28;20519;-67
2022/10/19 00:47:06;;;;;;;2.83;2.28;;;;;;;21.95;63.16;99458.97;2068164;28;20307;-65
2022/10/19 00:48:09;;;;;;;2.88;2.05;;;;;;;21.95;62.92;99458.13;2069714;28;20057;-65
2022/10/19 00:49:14;;;;;;;3.78;2.50;;;;;;;21.95;63.10;99458.97;2068226;28;20054;-66
2022/10/19 00:50:16;;;;;;;4.03;2.67;;;;;;;21.95;62.89;99458.97;2068103;28;20049;-66
2022/10/19 00:51:17;;;;;;;2.30;2.08;;;;;;;21.94;62.85;99451.91;2066605;28;20057;-66
2022/10/19 00:52:21;;;;;;;3.28;2.17;;;;;;;21.97;62.65;99459.59;2068237;28;20049;-66
2022/10/19 00:53:27;;;;;;;3.35;2.90;;;;;;;21.95;62.80;99450.84;2067586;28;20049;-67
2022/10/19 00:54:30;;;;;;;2.92;2.20;;;;;;;21.96;62.78;99455.25;2069833;28;20046;-66
2022/10/19 00:55:33;;;;;;;3.90;2.47;;;;;;;21.96;62.91;99449.00;2070909;28;20133;-66
2022/10/19 00:56:38;;;;;;;2.28;1.75;;;;;;;21.95;62.81;99456.25;2072241;28;20107;-66
2022/10/19 00:57:40;;;;;;;4.07;2.67;;;;;;;21.95;63.09;99453.56;2067435;28;20058;-66
2022/10/19 00:58:42;;;;;;;4.75;2.28;;;;;;;21.97;62.82;99456.88;2064887;28;20049;-65
2022/10/19 00:59:45;;;;;;;2.75;2.20;;;;;;;21.95;62.97;99453.56;2062855;28;20041;-67
2022/10/19 01:00:46;;;;;;;3.78;2.30;;;;;;;21.95;62.84;99453.56;2065245;28;20046;-66
2022/10/19 01:01:48;;;;;;;;;;;;;;;21.85;63.19;99450.44;2072148;28;20111;-66
2022/10/19 01:02:50;;;;;;;2.00;1.60;;;;;;;21.87;63.22;99453.78;2067844;28;19929;-65
2022/10/19 01:03:52;;;;;;;2.80;2.40;;;;;;;21.90;63.26;99450.66;2075637;28;20487;-66
2022/10/19 01:04:53;;;;;;;4.00;2.47;;;;;;;21.92;62.86;99451.28;2069679;28;20453;-66
2022/10/19 01:05:55;;;;;;;6.43;2.70;;;;;;;21.93;63.20;99452.94;2075905;28;20191;-66
2022/10/19 01:06:57;;;;;;;2.55;2.13;;;;;;;21.92;62.80;99451.28;2066391;28;20122;-66
2022/10/19 01:07:59;;;;;;;3.15;2.05;;;;;;;21.95;62.85;99445.44;2072916;28;20041;-66
2022/10/19 01:09:00;;;;;;;4.45;2.72;;;;;;;21.94;62.89;99449.19;2065605;28;21165;-66
2022/10/19 01:10:02;;;;;;;2.60;2.25;;;;;;;21.94;63.08;99446.50;2070096;28;20111;-66
2022/10/19 01:11:14;;;;;;;2.83;2.20;;;;;;;21.95;62.86;99450.03;2071080;28;20053;-65
2022/10/19 01:12:30;;;;;;;2.42;2.13;;;;;;;21.93;62.84;99449.44;2072975;28;20056;-67
2022/10/19 01:13:46;;;;;;;2.67;2.15;;;;;;;21.90;63.04;99439.00;2073354;28;20291;-66
2022/10/19 01:15:02;;;;;;;4.15;2.83;;;;;;;21.90;63.07;99439.00;2068305;28;20506;-66
2022/10/19 01:16:14;;;;;;;2.40;2.20;;;;;;;21.90;62.99;99439.88;2070826;28;20041;-66
2022/10/19 01:17:27;;;;;;;3.45;2.35;;;;;;;21.89;62.91;99440.06;2062873;28;20461;-65
2022/10/19 01:18:40;;;;;;;3.05;2.33;;;;;;;21.90;63.06;99442.56;2063044;28;20131;-66
2022/10/19 01:20:07;;;;;;;2.33;2.13;;;;;;;21.86;63.27;99444.81;2067802;28;20491;-65
2022/10/19 01:21:21;;;;;;;2.97;1.92;;;;;;;21.87;62.97;99432.19;2066998;28;20060;-66
2022/10/19 01:22:40;;;;;;;2.50;2.25;;;;;;;21.89;63.16;99437.34;2068304;28;20168;-65
2022/10/19 01:24:20;;;;;;;2.70;2.03;;;;;;;21.84;63.25;99427.16;2070069;28;20136;-65
2022/10/19 01:25:23;;;;;;;2.47;1.92;;;;;;;21.86;63.35;99430.50;2068820;28;20119;-66
2022/10/19 01:26:43;;;;;;;3.55;2.60;;;;;;;21.87;63.02;99421.38;2068688;28;20308;-66
2022/10/19 01:28:07;;;;;;;3.65;2.40;;;;;;;21.87;63.14;99429.47;2070512;28;20358;-66
2022/10/19 01:29:21;;;;;;;4.75;2.60;;;;;;;21.84;63.17;99421.75;2067813;28;20261;-65
2022/10/19 01:30:33;;;;;;;3.92;2.40;;;;;;;21.86;63.10;99422.38;2069175;28;20077;-66
2022/10/19 01:31:43;;;;;;;3.08;2.30;;;;;;;21.88;63.09;99424.91;2072932;28;20235;-66
2022/10/19 01:32:54;;;;;;;4.43;3.08;;;;;;;21.88;63.15;99424.91;2068610;28;20096;-66
2022/10/19 01:34:04;;;;;;;2.90;2.13;;;;;;;21.88;63.02;99423.03;2068658;28;20057;-67
2022/10/19 01:35:10;;;;;;;4.40;1.80;;;;;;;21.88;62.86;99423.03;2054218;28;20065;-66
2022/10/19 01:36:21;;;;;;;2.50;2.08;;;;;;;21.88;63.16;99425.72;2050142;28;20285;-66
2022/10/19 01:37:32;;;;;;;3.25;2.00;;;;;;;21.87;63.22;99424.06;2057763;28;20687;-66
2022/10/19 01:38:38;;;;;;;2.53;2.20;;;;;;;21.88;63.02;99425.72;2068056;28;20104;-66
2022/10/19 01:39:48;;;;;;;1.65;1.55;;;;;;;21.88;62.92;99420.31;2065772;28;20053;-65
2022/10/19 01:40:56;;;;;;;3.88;1.77;;;;;;;21.87;63.08;99418.66;2064657;28;20608;-66
2022/10/19 01:42:02;;;;;;;3.50;2.25;;;;;;;21.88;62.93;99420.31;2070443;28;20041;-66
2022/10/19 01:43:11;;;;;;;3.35;2.05;;;;;;;21.88;63.31;99412.22;2069596;28;21312;-66
2022/10/19 01:44:17;;;;;;;2.60;2.08;;;;;;;21.88;63.26;99414.09;2071016;28;20449;-66
2022/10/19 01:45:26;;;;;;;2.70;2.08;;;;;;;21.88;63.15;99414.91;2069793;28;20053;-65
2022/10/19 01:46:32;;;;;;;4.30;2.67;;;;;;;21.88;63.17;99414.91;2073986;28;20049;-66
2022/10/19 01:47:38;;;;;;;3.38;2.30;;;;;;;21.89;63.06;99416.56;2069312;28;20466;-65
2022/10/19 01:48:45;;;;;;;3.58;2.05;;;;;;;21.88;62.82;99414.91;2070656;28;20042;-66
2022/10/19 01:49:51;;;;;;;2.80;2.42;;;;;;;21.88;63.06;99409.53;2069210;28;20474;-66
2022/10/19 01:50:57;;;;;;;3.78;2.33;;;;;;;21.89;63.18;99413.03;2064508;28;20054;-65
2022/10/19 01:52:04;;;;;;;2.95;2.30;;;;;;;21.88;63.01;99412.22;2067827;28;20078;-66
2022/10/19 01:53:08;;;;;;;2.58;1.92;;;;;;;21.89;63.05;99408.47;2068772;28;20053;-67
2022/10/19 01:54:14;;;;;;;2.72;2.20;;;;;;;21.89;63.27;99404.94;2071208;28;20057;-66
2022/10/19 01:55:16;;;;;;;2.92;2.63;;;;;;;21.87;63.21;99402.47;2071326;28;20065;-67
2022/10/19 01:56:22;;;;;;;3.20;2.17;;;;;;;21.87;63.03;99397.06;2072261;28;20431;-65
2022/10/19 01:57:29;;;;;;;3.92;2.90;;;;;;;21.88;62.83;99396.00;2072512;28;20136;-66
2022/10/19 01:58:35;;;;;;;3.60;2.30;;;;;;;21.88;62.95;99401.41;2069544;28;20057;-66
2022/10/19 01:59:38;;;;;;;2.88;2.35;;;;;;;21.88;63.03;99401.41;2068306;28;20107;-65
2022/10/19 02:00:44;;;;;;;2.95;1.80;;;;;;;21.89;62.96;99399.53;2071600;28;20106;-67
2022/10/19 02:01:48;;;;;;;4.03;2.92;;;;;;;21.86;63.09;99395.38;2072105;28;20704;-66
2022/10/19 02:02:53;;;;;;;4.63;2.30;;;;;;;21.88;62.86;99397.91;2068951;28;20095;-66
2022/10/19 02:03:56;;;;;;;2.55;2.20;;;;;;;21.87;63.01;99399.78;2065756;28;20061;-66
2022/10/19 02:04:58;;;;;;;2.72;1.85;;;;;;;21.87;63.14;99391.66;2066026;28;20053;-66
2022/10/19 02:06:01;;;;;;;2.60;2.40;;;;;;;21.88;62.92;99393.31;2069490;28;20057;-66
2022/10/19 02:07:04;;;;;;;2.75;2.35;;;;;;;21.90;62.94;99401.19;2072426;28;20049;-67
2022/10/19 02:08:10;;;;;;;3.25;2.38;;;;;;;21.89;63.00;99391.44;2075834;28;20053;-66
2022/10/19 02:09:16;;;;;;;2.47;2.28;;;;;;;21.87;63.29;99394.38;2067661;28;20316;-66
2022/10/19 02:10:19;;;;;;;2.25;2.05;;;;;;;21.87;62.88;99399.78;2070386;28;20057;-66
2022/10/19 02:11:22;;;;;;;2.58;1.90;;;;;;;21.88;63.04;99395.19;2071950;28;20082;-65
2022/10/19 02:12:25;;;;;;;3.05;2.28;;;;;;;21.89;63.18;99396.84;2073825;28;20049;-66
2022/10/19 02:13:29;;;;;;;3.30;1.77;;;;;;;21.89;63.18;99397.66;2067848;28;20051;-66
2022/10/19 02:14:33;;;;;;;2.20;1.75;;;;;;;21.87;63.11;99394.38;2071780;28;20530;-66
2022/10/19 02:15:39;;;;;;;3.95;2.22;;;;;;;21.88;63.21;99392.50;2070527;28;20072;-66
2022/10/19 02:16:46;;;;;;;2.03;1.73;;;;;;;21.87;63.08;99391.66;2070741;28;20053;-66
2022/10/19 02:17:54;;;;;;;3.10;1.90;;;;;;;21.88;63.26;99393.31;2072173;28;20115;-66
2022/10/19 02:18:57;;;;;;;3.75;2.30;;;;;;;21.87;63.03;99399.78;2070453;28;20072;-67
2022/10/19 02:19:59;;;;;;;2.50;1.90;;;;;;;21.87;63.19;99394.38;2068399;28;20049;-65
2022/10/19 02:21:02;;;;;;;3.35;2.17;;;;;;;21.89;63.01;99396.84;2068497;28;20053;-66
2022/10/19 02:22:04;;;;;;;2.80;2.40;;;;;;;21.87;63.13;99388.97;2067592;28;20049;-67
2022/10/19 02:23:06;;;;;;;4.43;1.98;;;;;;;21.87;63.02;99388.97;2072687;28;20057;-66
2022/10/19 02:24:07;;;;;;;3.58;1.80;;;;;;;21.88;62.98;99398.72;2070945;28;20041;-66
2022/10/19 02:25:09;;;;;;;3.65;2.67;;;;;;;21.87;63.07;99391.66;2067619;28;20049;-66
2022/10/19 02:26:11;;;;;;;2.85;2.10;;;;;;;21.87;62.99;99383.56;2068961;28;20057;-65
2022/10/19 02:27:12;;;;;;;3.17;2.30;;;;;;;21.87;62.97;99388.97;2069368;28;20045;-66
2022/10/19 02:28:14;;;;;;;2.78;1.98;;;;;;;21.87;63.16;99388.97;2070941;28;20231;-66
2022/10/19 02:29:15;;;;;;;2.85;2.22;;;;;;;21.86;62.81;99384.59;2068449;28;20046;-66
2022/10/19 02:30:20;;;;;;;2.45;2.10;;;;;;;21.87;63.07;99386.25;2069727;28;20894;-66
2022/10/19 02:31:21;;;;;;;2.65;2.00;;;;;;;21.86;63.10;99384.59;2067564;28;20096;-66
2022/10/19 02:32:23;;;;;;;3.80;2.40;;;;;;;21.87;63.12;99383.56;2069898;28;20061;-67
2022/10/19 02:33:27;;;;;;;2.33;2.08;;;;;;;21.88;63.15;99384.38;2071710;28;20050;-66
2022/10/19 02:34:29;;;;;;;2.03;1.83;;;;;;;21.86;62.94;99379.19;2066181;28;20060;-67
2022/10/19 02:35:30;;;;;;;2.33;1.83;;;;;;;21.86;63.02;99380.00;2067097;28;20049;-67
2022/10/19 02:36:32;;;;;;;2.95;2.35;;;;;;;21.87;63.03;99380.88;2069377;28;20609;-66
2022/10/19 02:37:33;;;;;;;1.75;1.50;;;;;;;21.87;62.96;99380.88;2068079;28;20866;-65
2022/10/19 02:38:35;;;;;;;2.97;2.20;;;;;;;21.88;62.93;99382.50;2066828;28;20083;-66
2022/10/19 02:39:37;;;;;;;2.63;2.42;;;;;;;21.87;62.96;99375.47;2067677;28;20060;-65
2022/10/19 02:40:43;;;;;;;1.90;1.70;;;;;;;21.88;63.16;99376.28;2065948;28;20057;-66
2022/10/19 02:41:49;;;;;;;2.67;1.98;;;;;;;21.86;62.89;99374.59;2067744;28;20072;-65
2022/10/19 02:42:56;;;;;;;2.72;2.00;;;;;;;21.86;62.95;99366.50;2066982;28;20540;-66
2022/10/19 02:44:02;;;;;;;2.58;2.38;;;;;;;21.85;63.13;99367.56;2068462;28;23659;-66
2022/10/19 02:45:10;;;;;;;3.42;2.15;;;;;;;21.85;62.73;99366.72;2064529;28;20050;-65
2022/10/19 02:46:17;;;;;;;3.47;1.90;;;;;;;21.84;63.05;99363.19;2069705;28;20049;-66
2022/10/19 02:47:25;;;;;;;5.00;1.83;;;;;;;21.85;63.04;99366.72;2067639;28;20060;-67
2022/10/19 02:48:30;;;;;;;4.00;2.58;;;;;;;21.85;63.30;99370.25;2063892;28;20146;-66
2022/10/19 02:49:35;;;;;;;2.17;1.77;;;;;;;21.85;63.00;99364.84;2066553;28;20053;-66
2022/10/19 02:50:36;;;;;;;3.35;1.83;;;;;;;21.84;63.06;99362.34;2068996;28;20056;-65
2022/10/19 02:51:40;;;;;;;2.60;1.70;;;;;;;21.85;63.02;99361.31;2069115;28;20048;-66
2022/10/19 02:52:41;;;;;;;2.17;1.85;;;;;;;21.84;63.16;99365.91;2069792;28;20358;-67
2022/10/19 02:53:43;;;;;;;3.05;2.30;;;;;;;21.85;63.15;99366.72;2067436;28;20525;-65
2022/10/19 02:54:44;;;;;;;2.83;1.98;;;;;;;21.84;63.06;99363.19;2070657;28;20168;-67
2022/10/19 02:55:48;;;;;;;3.65;2.20;;;;;;;21.86;63.03;99368.38;2066852;28;20058;-66
2022/10/19 02:56:49;;;;;;;2.42;1.88;;;;;;;21.84;63.00;99363.19;2067963;28;20042;-66
2022/10/19 02:57:50;;;;;;;2.03;1.83;;;;;;;21.85;63.08;99356.75;2065968;28;20045;-67
2022/10/19 02:58:51;;;;;;;3.50;2.08;;;;;;;21.85;62.96;99359.44;2067333;28;20049;-65
2022/10/19 02:59:53;;;;;;;3.38;2.00;;;;;;;21.85;63.06;99354.06;2065749;28;20049;-66
2022/10/19 03:00:54;;;;;;;2.17;1.83;;;;;;;21.84;62.97;99365.03;2064132;28;20054;-65
2022/10/19 03:01:56;;;;;;;3.22;2.13;;;;;;;21.84;63.13;99357.81;2070493;28;20042;-66
2022/10/19 03:02:56;;;;;;;2.22;2.00;;;;;;;21.84;63.07;99349.69;2068107;28;20045;-66
2022/10/19 03:04:00;;;;;;;2.17;2.00;;;;;;;21.85;62.95;99351.34;2067509;28;20498;-67
2022/10/19 03:05:00;;;;;;;2.00;1.73;;;;;;;21.84;63.11;99344.28;2065839;28;20058;-66
2022/10/19 03:06:02;;;;;;;2.97;1.85;;;;;;;21.84;63.07;99346.13;2068003;28;20050;-65
2022/10/19 03:07:03;;;;;;;2.72;1.90;;;;;;;21.86;63.04;99346.78;2066547;28;20049;-67
2022/10/19 03:08:05;;;;;;;2.58;1.67;;;;;;;21.84;62.99;99348.84;2062387;28;20256;-66
2022/10/19 03:09:06;;;;;;;2.53;1.90;;;;;;;21.86;62.84;99346.78;2062972;28;20050;-66
2022/10/19 03:10:09;;;;;;;3.00;1.85;;;;;;;21.84;63.07;99348.84;2068532;28;20046;-66
2022/10/19 03:11:10;;;;;;;2.65;2.20;;;;;;;21.85;63.12;99351.34;2065375;28;20054;-66
2022/10/19 03:12:12;;;;;;;2.85;2.08;;;;;;;21.85;63.03;99351.34;2070869;28;20056;-66
2022/10/19 03:13:13;;;;;;;2.10;1.90;;;;;;;21.86;63.15;99349.47;2068694;28;20045;-66
2022/10/19 03:14:15;;;;;;;2.45;2.25;;;;;;;21.84;63.23;99354.25;2067143;28;20192;-65
2022/10/19 03:15:17;;;;;;;2.88;2.03;;;;;;;21.86;62.93;99349.47;2064915;28;20430;-66
2022/10/19 03:16:19;;;;;;;2.65;2.40;;;;;;;21.84;63.08;99355.09;2067918;28;21583;-65
2022/10/19 03:17:20;;;;;;;4.05;2.47;;;;;;;21.84;63.15;99355.09;2065424;28;20052;-66
2022/10/19 03:18:21;;;;;;;3.30;2.05;;;;;;;21.85;62.95;99353.22;2067983;28;20057;-66
2022/10/19 03:19:24;;;;;;;2.75;2.25;;;;;;;21.84;63.19;99351.53;2064697;28;21198;-66
2022/10/19 03:20:26;;;;;;;3.05;1.90;;;;;;;21.84;63.24;99349.69;2067145;28;20068;-65
2022/10/19 03:21:27;;;;;;;2.63;2.17;;;;;;;21.84;63.22;99354.25;2063328;28;20045;-65
2022/10/19 03:22:28;;;;;;;2.47;1.92;;;;;;;21.84;63.11;99352.41;2063014;28;20064;-66
2022/10/19 03:23:29;;;;;;;2.97;2.00;;;;;;;21.84;63.08;99348.84;2069681;28;20060;-67
2022/10/19 03:24:31;;;;;;;2.70;2.42;;;;;;;21.84;63.23;99359.63;2070560;28;20540;-65
2022/10/19 03:25:32;;;;;;;3.45;2.10;;;;;;;21.84;63.11;99354.25;2069618;28;20435;-65
2022/10/19 03:26:34;;;;;;;2.67;2.38;;;;;;;21.84;62.96;99354.25;2065756;28;20128;-67
2022/10/19 03:27:35;;;;;;;2.45;1.67;;;;;;;21.84;63.00;99360.50;2067591;28;20454;-66
2022/10/19 03:28:36;;;;;;;3.95;2.17;;;;;;;21.84;63.02;99349.69;2072365;28;20072;-66
2022/10/19 03:29:38;;;;;;;3.42;2.65;;;;;;;21.83;63.23;99348.00;2064307;28;20511;-66
2022/10/19 03:30:39;;;;;;;2.95;2.03;;;;;;;21.84;63.08;99348.84;2071122;28;20430;-67
2022/10/19 03:31:41;;;;;;;2.03;1.67;;;;;;;21.83;63.03;99345.31;2063973;28;20042;-66
2022/10/19 03:32:41;;;;;;;4.20;2.33;;;;;;;21.83;62.98;99350.72;2066874;28;20053;-66
2022/10/19 03:33:43;;;;;;;2.72;1.92;;;;;;;21.84;62.97;99355.09;2067154;28;20470;-66
2022/10/19 03:34:45;;;;;;;2.28;1.70;;;;;;;21.85;62.95;99350.53;2070010;28;20053;-65
2022/10/19 03:35:47;;;;;;;2.85;2.40;;;;;;;21.84;63.02;99354.25;2070709;28;20076;-66
2022/10/19 03:36:49;;;;;;;3.03;1.85;;;;;;;21.84;63.15;99354.25;2069867;28;20046;-66
2022/10/19 03:37:50;;;;;;;3.78;2.20;;;;;;;21.84;63.12;99356.94;2067992;28;20617;-67
2022/10/19 03:38:52;;;;;;;3.95;2.28;;;;;;;21.81;63.27;99349.25;2069827;28;20064;-66
2022/10/19 03:39:53;;;;;;;2.63;1.90;;;;;;;21.83;63.22;99352.59;2074621;28;20491;-65
2022/10/19 03:40:55;;;;;;;2.92;1.77;;;;;;;21.83;62.92;99347.19;2069082;28;20080;-66
2022/10/19 03:41:56;;;;;;;2.45;1.95;;;;;;;21.83;63.28;99352.59;2071896;28;20068;-66
2022/10/19 03:42:58;;;;;;;2.65;1.98;;;;;;;21.83;63.04;99347.19;2066307;28;20458;-66
2022/10/19 03:43:58;;;;;;;2.53;2.30;;;;;;;21.82;63.00;99343.66;2069283;28;20058;-65
2022/10/19 03:45:00;;;;;;;2.65;2.45;;;;;;;21.84;63.03;99348.84;2069187;28;20204;-66
2022/10/19 03:46:01;;;;;;;2.38;2.17;;;;;;;21.82;63.00;99345.53;2069864;28;20049;-66
2022/10/19 03:47:03;;;;;;;2.80;1.80;;;;;;;21.82;63.17;99349.06;2070606;28;20042;-66
2022/10/19 03:48:04;;;;;;;2.35;2.15;;;;;;;21.83;62.99;99341.78;2069310;28;20069;-66
2022/10/19 03:49:07;;;;;;;2.72;2.47;;;;;;;21.82;63.06;99346.38;2063005;28;20045;-65
2022/10/19 03:50:12;;;;;;;2.90;1.70;;;;;;;21.82;63.06;99345.53;2070655;28;20491;-66
2022/10/19 03:51:16;;;;;;;3.35;1.83;;;;;;;21.81;62.99;99347.41;2070723;28;20045;-65
2022/10/19 03:52:18;;;;;;;2.60;2.10;;;;;;;21.81;63.06;99346.56;2069110;28;20046;-66
2022/10/19 03:53:20;;;;;;;2.08;1.85;;;;;;;21.81;63.17;99350.13;2070562;28;20080;-65
2022/10/19 03:54:20;;;;;;;2.75;2.25;;;;;;;21.83;63.09;99349.88;2072034;28;21192;-66
2022/10/19 03:55:22;;;;;;;2.58;2.25;;;;;;;21.82;63.00;99350.94;2069413;28;20046;-66
2022/10/19 03:56:25;;;;;;;1.70;1.45;;;;;;;21.83;62.97;99352.59;2072812;28;20434;-65
2022/10/19 03:57:27;;;;;;;1.90;1.80;;;;;;;21.82;63.12;99353.66;2066588;28;20707;-66
2022/10/19 03:58:28;;;;;;;2.95;2.10;;;;;;;21.82;62.97;99354.47;2067373;28;20553;-67
2022/10/19 03:59:30;;;;;;;2.90;2.22;;;;;;;21.82;63.01;99348.25;2070666;28;20656;-66
2022/10/19 04:00:31;;;;;;;2.95;2.10;;;;;;;21.81;63.05;99354.66;2069968;28;20228;-65
2022/10/19 04:01:35;;;;;;;2.75;2.05;;;;;;;21.81;62.98;99350.13;2071391;28;20748;-66
2022/10/19 04:02:36;;;;;;;2.67;2.47;;;;;;;21.80;63.13;99355.72;2071314;28;20107;-66
2022/10/19 04:03:38;;;;;;;1.75;1.60;;;;;;;21.82;63.08;99350.94;2067666;28;20057;-66
2022/10/19 04:04:39;;;;;;;2.22;2.03;;;;;;;21.81;63.08;99354.66;2073834;28;20045;-66
2022/10/19 04:05:41;;;;;;;2.33;1.63;;;;;;;21.80;63.26;99353.00;2069169;28;20054;-66
2022/10/19 04:06:46;;;;;;;3.22;2.08;;;;;;;21.80;63.00;99353.00;2065727;28;20053;-67
2022/10/19 04:07:47;;;;;;;2.95;2.00;;;;;;;21.81;63.11;99354.66;2067561;28;20050;-66
2022/10/19 04:08:49;;;;;;;2.00;1.80;;;;;;;21.81;62.86;99354.66;2070124;28;20435;-66
2022/10/19 04:09:50;;;;;;;2.08;1.88;;;;;;;21.80;62.98;99359.22;2071086;28;20042;-65
2022/10/19 04:10:51;;;;;;;2.20;1.98;;;;;;;21.81;63.25;99350.13;2070028;28;20056;-66
2022/10/19 04:11:52;;;;;;;3.38;2.55;;;;;;;21.81;63.21;99354.66;2070233;28;20103;-66
2022/10/19 04:12:54;;;;;;;2.25;1.80;;;;;;;21.81;62.96;99357.34;2071666;28;20049;-66
2022/10/19 04:13:56;;;;;;;2.15;1.52;;;;;;;21.80;63.19;99356.53;2066593;28;20049;-65
2022/10/19 04:14:58;;;;;;;3.17;1.85;;;;;;;21.81;63.13;99355.53;2069453;28;20102;-65
2022/10/19 04:15:59;;;;;;;3.60;2.40;;;;;;;21.81;63.15;99362.75;2069669;28;20045;-66
2022/10/19 04:17:01;;;;;;;1.98;1.77;;;;;;;21.80;63.05;99358.41;2068799;28;20057;-65
2022/10/19 04:18:02;;;;;;;1.58;1.40;;;;;;;21.81;63.14;99354.66;2068515;28;20755;-66
2022/10/19 04:19:04;;;;;;;2.00;1.80;;;;;;;21.80;63.04;99361.94;2068667;28;20060;-66
2022/10/19 04:20:05;;;;;;;2.88;2.13;;;;;;;21.80;62.93;99348.44;2071907;28;20050;-66
2022/10/19 04:21:21;;;;;;;2.78;1.85;;;;;;;21.77;63.12;99358.81;2071209;28;20108;-65
2022/10/19 04:22:22;;;;;;;2.38;1.90;;;;;;;21.77;63.04;99353.44;2069550;28;20050;-66
2022/10/19 04:23:26;;;;;;;2.97;1.98;;;;;;;21.78;63.08;99366.69;2066109;28;20123;-66
2022/10/19 04:24:27;;;;;;;2.22;1.90;;;;;;;21.77;63.23;99365.06;2072946;28;20053;-66
2022/10/19 04:25:29;;;;;;;2.35;1.95;;;;;;;21.79;63.20;99362.16;2070353;28;20091;-67
2022/10/19 04:26:29;;;;;;;2.80;2.10;;;;;;;21.80;63.23;99361.09;2070176;28;20493;-66
2022/10/19 04:27:31;;;;;;;2.65;2.03;;;;;;;21.80;63.05;99363.81;2070945;28;20057;-66
2022/10/19 04:28:33;;;;;;;2.38;1.88;;;;;;;21.81;63.18;99365.47;2071988;28;20054;-66
2022/10/19 04:29:35;;;;;;;2.17;1.85;;;;;;;21.80;63.01;99363.81;2068061;28;20049;-66
2022/10/19 04:30:35;;;;;;;2.28;2.08;;;;;;;21.80;62.87;99361.09;2072368;28;20048;-65
2022/10/19 04:31:37;;;;;;;;;;;;;;;21.68;63.30;99362.78;2072625;28;20049;-67
2022/10/19 04:32:38;;;;;;;2.20;1.90;;;;;;;21.71;63.26;99359.66;2071803;28;19924;-65
2022/10/19 04:33:40;;;;;;;2.50;2.30;;;;;;;21.75;63.14;99360.91;2066653;28;20045;-64
2022/10/19 04:34:41;;;;;;;2.92;1.67;;;;;;;21.76;63.07;99363.41;2064367;28;20466;-65
2022/10/19 04:35:43;;;;;;;2.63;1.88;;;;;;;21.76;63.03;99363.41;2068231;28;20053;-66
2022/10/19 04:36:45;;;;;;;2.38;2.17;;;;;;;21.79;63.08;99367.56;2070055;28;20249;-66
2022/10/19 04:37:47;;;;;;;2.72;2.25;;;;;;;21.77;62.97;99362.34;2068851;28;20069;-66
2022/10/19 04:38:48;;;;;;;2.13;1.92;;;;;;;21.77;63.28;99364.22;2071537;28;20049;-66
2022/10/19 04:39:50;;;;;;;4.25;2.25;;;;;;;21.77;63.23;99359.66;2066267;28;20046;-66
2022/10/19 04:40:51;;;;;;;2.78;2.20;;;;;;;21.78;63.19;99366.69;2069920;28;20057;-67
2022/10/19 04:41:53;;;;;;;2.63;2.42;;;;;;;21.80;63.27;99358.41;2070811;28;20049;-66
2022/10/19 04:42:53;;;;;;;2.15;1.88;;;;;;;21.78;62.90;99357.78;2074651;28;20136;-66
2022/10/19 04:43:57;;;;;;;3.10;2.55;;;;;;;21.78;63.06;99360.47;2073313;28;20498;-66
2022/10/19 04:44:59;;;;;;;2.25;2.05;;;;;;;21.78;63.21;99357.78;2071709;28;20196;-66
2022/10/19 04:46:04;;;;;;;2.35;2.15;;;;;;;21.78;63.08;99360.47;2069972;28;20057;-65
2022/10/19 04:47:06;;;;;;;3.00;2.30;;;;;;;21.77;63.23;99350.72;2067787;28;20056;-66
2022/10/19 04:48:07;;;;;;;2.75;2.38;;;;;;;21.78;63.20;99350.50;2068298;28;20439;-66
2022/10/19 04:49:09;;;;;;;2.80;1.80;;;;;;;21.77;62.98;99354.25;2068109;28;20133;-66
2022/10/19 04:50:09;;;;;;;2.45;1.60;;;;;;;21.76;62.99;99352.59;2069107;28;20066;-66
2022/10/19 04:51:11;;;;;;;;;;;;;;;21.66;63.38;99352.16;2065188;28;21260;-66
2022/10/19 04:52:13;;;;;;;;;;;;;;;21.57;63.48;99348.84;2068772;28;19929;-66
2022/10/19 04:53:15;;;;;;;3.33;1.92;;;;;;;21.64;63.45;99346.13;2069578;28;19921;-66
2022/10/19 04:54:16;;;;;;;2.38;1.95;;;;;;;21.68;63.28;99349.28;2069975;28;20248;-65
2022/10/19 04:55:17;;;;;;;;;;;;;;;21.60;63.76;99348.41;2056728;28;20465;-67
2022/10/19 04:56:19;;;;;;;;;;;;;;;21.55;63.69;99353.59;2064339;28;20513;-66
2022/10/19 04:57:21;;;;;;;2.13;1.42;;;;;;;21.61;63.45;99355.47;2058642;28;20066;-66
2022/10/19 04:58:22;;;;;;;1.92;1.77;;;;;;;21.67;63.14;99344.91;2071019;28;20227;-66
2022/10/19 04:59:23;;;;;;;;;;;;;;;21.60;63.48;99353.81;2071501;28;20060;-66
2022/10/19 05:00:24;;;;;;;2.05;1.83;;;;;;;21.66;63.41;99351.34;2068376;28;19929;-66